createdAt,value
2024-01-09T00:04:51.957Z,69.76
2024-01-09T00:14:55.260Z,69.47
2024-01-09T00:24:58.434Z,69.69
2024-01-09T00:35:02.404Z,69.81
2024-01-09T00:45:09.608Z,69.99
2024-01-09T00:55:13.374Z,69.44
2024-01-09T01:05:17.451Z,69.58
2024-01-09T01:15:20.889Z,69.67
2024-01-09T01:25:24.026Z,68.87
2024-01-09T01:35:28.127Z,68.79
2024-01-09T01:45:31.340Z,68.73
2024-01-09T01:55:35.508Z,68.87
2024-01-09T02:05:39.165Z,68.68
2024-01-09T02:15:42.411Z,68.00
2024-01-09T02:25:47.305Z,68.06
2024-01-09T02:35:50.339Z,67.19
2024-01-09T02:45:53.359Z,67.36
2024-01-09T02:55:56.518Z,67.53
2024-01-09T03:05:59.722Z,67.58
2024-01-09T03:16:03.715Z,67.91
2024-01-09T03:26:06.836Z,68.20
2024-01-09T03:36:10.336Z,67.94
2024-01-09T03:46:13.541Z,68.38
2024-01-09T03:56:16.689Z,67.95
2024-01-09T04:06:20.012Z,67.80
2024-01-09T04:16:23.724Z,68.17
2024-01-09T04:26:26.888Z,68.22
2024-01-09T04:36:30.003Z,68.16
2024-01-09T04:46:33.183Z,67.88
2024-01-09T04:56:36.502Z,67.61
2024-01-09T05:06:39.648Z,67.52
2024-01-09T05:16:43.070Z,67.79
2024-01-09T05:26:46.274Z,67.53
2024-01-09T05:36:50.570Z,67.26
2024-01-09T05:46:53.816Z,67.61
2024-01-09T05:56:56.987Z,68.10
2024-01-09T06:07:00.130Z,67.98
2024-01-09T06:17:03.433Z,67.44
2024-01-09T06:27:06.676Z,67.69
2024-01-09T06:37:09.920Z,67.80
2024-01-09T06:47:13.268Z,67.77
2024-01-09T06:57:16.590Z,68.10
2024-01-09T07:07:20.791Z,68.11
2024-01-09T07:17:26.135Z,68.21
2024-01-09T07:27:29.414Z,68.02
2024-01-09T07:37:32.628Z,68.07
2024-01-09T07:47:35.741Z,67.32
2024-01-09T07:57:39.072Z,67.43
2024-01-09T08:07:42.159Z,66.88
2024-01-09T08:17:45.527Z,67.31
2024-01-09T08:27:49.246Z,67.36
2024-01-09T08:37:52.362Z,67.16
2024-01-09T08:47:55.669Z,67.37
2024-01-09T08:57:59.379Z,67.42
2024-01-09T09:08:02.484Z,67.45
2024-01-09T09:18:06.306Z,67.98
2024-01-09T09:28:09.844Z,67.51
2024-01-09T09:38:14.917Z,67.67
2024-01-09T09:48:21.571Z,68.42
2024-01-09T09:58:24.785Z,68.47
2024-01-09T10:08:30.808Z,69.35
2024-01-09T10:18:34.673Z,69.70
2024-01-09T10:28:38.054Z,69.95
2024-01-09T10:38:44.568Z,71.14
2024-01-09T10:48:48.472Z,70.39
2024-01-09T10:58:52.189Z,70.34
2024-01-09T11:09:00.198Z,70.41
2024-01-09T11:19:06.583Z,70.38
2024-01-09T11:29:09.984Z,70.19
2024-01-09T11:39:13.047Z,70.53
2024-01-09T11:49:16.416Z,70.81
2024-01-09T11:59:20.007Z,71.47
2024-01-09T12:09:23.742Z,71.88
2024-01-09T12:19:26.917Z,72.17
2024-01-09T12:29:30.263Z,71.77
2024-01-09T12:39:35.110Z,71.70
2024-01-09T12:49:59.519Z,71.48
2024-01-09T13:00:08.549Z,70.30
2024-01-09T13:10:11.785Z,69.88
2024-01-09T13:20:15.123Z,70.64
2024-01-09T13:40:25.716Z,71.41
2024-01-09T13:51:47.775Z,71.24
2024-01-09T14:00:53.116Z,70.41
2024-01-09T14:10:56.447Z,69.61
2024-01-09T14:20:59.572Z,68.85
2024-01-09T14:31:04.461Z,68.69
2024-01-09T14:41:10.696Z,68.90
2024-01-09T14:51:13.855Z,69.48
2024-01-09T15:01:19.392Z,69.71
2024-01-09T15:11:25.980Z,70.01
2024-01-09T15:21:34.263Z,70.32
2024-01-09T15:31:41.020Z,70.61
2024-01-09T15:41:44.537Z,70.44
2024-01-09T15:51:47.864Z,70.14
2024-01-09T16:01:51.981Z,70.00
2024-01-09T16:11:58.077Z,70.79
2024-01-09T16:22:01.211Z,71.12
2024-01-09T16:32:07.167Z,71.24
2024-01-09T16:42:10.283Z,70.79
2024-01-09T16:52:13.324Z,70.57
2024-01-09T17:02:16.772Z,70.66
2024-01-09T17:12:20.852Z,70.67
2024-01-09T17:22:23.964Z,70.34
2024-01-09T17:32:28.450Z,70.02
2024-01-09T17:42:36.318Z,70.25
2024-01-09T17:52:41.397Z,69.75
2024-01-09T18:02:44.583Z,70.02
2024-01-09T18:12:47.700Z,69.61
2024-01-09T18:22:50.949Z,69.80
2024-01-09T18:32:54.078Z,70.43
2024-01-09T18:42:57.586Z,70.48
2024-01-09T18:53:01.676Z,70.15
2024-01-09T19:03:05.738Z,70.31
2024-01-09T19:13:11.087Z,70.22
2024-01-09T19:23:14.231Z,69.95
2024-01-09T19:33:17.711Z,70.13
2024-01-09T19:43:27.469Z,70.17
2024-01-09T19:53:30.607Z,69.98
2024-01-09T20:03:33.644Z,70.01
2024-01-09T20:13:39.486Z,69.65
2024-01-09T20:23:45.711Z,69.37
2024-01-09T20:33:49.606Z,69.35
2024-01-09T20:43:56.028Z,70.16
2024-01-09T20:53:59.027Z,69.68
2024-01-09T21:04:05.846Z,69.67
2024-01-09T21:14:09.362Z,69.64
2024-01-09T21:24:12.789Z,70.02
2024-01-09T21:34:17.118Z,69.99
2024-01-09T21:44:20.428Z,70.17
2024-01-09T21:54:23.684Z,70.06
2024-01-09T22:04:28.213Z,70.03
2024-01-09T22:14:35.854Z,70.34
2024-01-09T22:24:39.148Z,69.91
2024-01-09T22:34:42.233Z,70.16
2024-01-09T22:44:45.430Z,69.86
2024-01-09T22:54:49.147Z,70.30
2024-01-09T23:04:52.306Z,70.44
2024-01-09T23:14:55.708Z,70.76
2024-01-09T23:24:59.021Z,70.53
2024-01-09T23:35:03.019Z,70.86
2024-01-09T23:45:07.002Z,70.20
2024-01-09T23:55:10.293Z,70.21
